Terminal Aerodrome Forecast
Issued by NWS Mt. Holly, NJ

Home | Current Version | Previous Version | Text Only | Print | Product List | Glossary On
Versions: 1 2 3 4 5 6 7 8 9 10 11 12 13 14 15 16 17 18 19 20 21 22 23 24 25 26 27 28 29 30 31 32 33 34 35 36 37 38 39 40 41 42 43 44 45 46 47 48 49 50
000
FTUS41 KPHI 131900 AAA
TAFABE
TAF AMD
KABE 131922Z 1319/1418 20012KT P6SM SCT035 BKN100
      TEMPO 1322/1324 3SM TSRA BR OVC020CB
     FM140000 22006KT P6SM BKN035
     FM140300 VRB03KT 4SM BR SCT020 BKN100
     FM141300 21005KT P6SM SCT030 BKN050=

USA.gov is the U.S. government's official web portal to all federal, state and local government web resources and services.